Portada
METAR-TAF:

METAR-TAF

Aeroports :

NWS Office

Majuro, Illes Marshall

latitud: 07-05N, longitud: 171-12E, altitud: 4 m

Observació

L'informe es va fer fa 1 hora i 7 minuts, a les 20:53 UTC
Vent 15 kt del Est/Nord-Est
Temperatura 29°C
Humitat 79%
Pressió 1008 hPa
Visibilitat: 32.2 km
Escasses núvols a una alçada de 1500 ft
Núvols disperses a una alçada de 30000 ft

METAR: PKMR 102053Z 06015KT 20SM FEW015 SCT300 29/25 A2976 RMK SLP081 8/101 T02910246 53010

Hora: 10:00 (22:00 UTC)


TAF: manca

Observacions i pronòstics meteorològics de més de 4000 aeroports (METAR i TAF).

Les estacions disponibles són els punts grocs i vermells al mapa.

Posi el ratolí al punt desitjat per veure el nom de l'estació.

Feu clic per veure les observacions i els pronòstics meteorològics.

Per canviar el mapa: feu clic els botons verds amb una creu de color negre per apropar; al botó verd amb un guió per allunyar la imatge; o en les fletxes verdes per a mapes adjacents.


METAR-TAF: